sensor_id;sensor_type;location;lat;lon;timestamp;temperature;humidity
68248;SHT30;55064;49.636;12.164;2023-03-23T00:01:16;7.77;85.20
68248;SHT30;55064;49.636;12.164;2023-03-23T00:03:46;7.82;84.96
68248;SHT30;55064;49.636;12.164;2023-03-23T00:06:12;7.79;84.45
68248;SHT30;55064;49.636;12.164;2023-03-23T00:08:45;7.87;83.72
68248;SHT30;55064;49.636;12.164;2023-03-23T00:11:20;7.90;84.15
68248;SHT30;55064;49.636;12.164;2023-03-23T00:13:47;7.91;84.03
68248;SHT30;55064;49.636;12.164;2023-03-23T00:16:16;7.98;83.91
68248;SHT30;55064;49.636;12.164;2023-03-23T00:18:48;8.00;83.93
68248;SHT30;55064;49.636;12.164;2023-03-23T00:21:20;8.01;83.02
68248;SHT30;55064;49.636;12.164;2023-03-23T00:23:53;8.00;83.32
68248;SHT30;55064;49.636;12.164;2023-03-23T00:26:19;7.91;83.77
68248;SHT30;55064;49.636;12.164;2023-03-23T00:28:46;7.86;84.22
68248;SHT30;55064;49.636;12.164;2023-03-23T00:31:12;7.86;84.14
68248;SHT30;55064;49.636;12.164;2023-03-23T00:33:39;7.77;84.51
68248;SHT30;55064;49.636;12.164;2023-03-23T00:36:08;7.66;85.34
68248;SHT30;55064;49.636;12.164;2023-03-23T00:38:37;7.72;85.54
68248;SHT30;55064;49.636;12.164;2023-03-23T00:41:03;7.61;85.81
68248;SHT30;55064;49.636;12.164;2023-03-23T00:43:29;7.63;85.94
68248;SHT30;55064;49.636;12.164;2023-03-23T00:45:56;7.72;85.36
68248;SHT30;55064;49.636;12.164;2023-03-23T00:48:24;7.76;85.18
68248;SHT30;55064;49.636;12.164;2023-03-23T00:50:50;7.80;84.95
68248;SHT30;55064;49.636;12.164;2023-03-23T00:53:18;7.70;85.39
68248;SHT30;55064;49.636;12.164;2023-03-23T00:55:45;7.79;85.10
68248;SHT30;55064;49.636;12.164;2023-03-23T00:58:12;7.76;84.88
68248;SHT30;55064;49.636;12.164;2023-03-23T01:00:38;7.79;84.98
68248;SHT30;55064;49.636;12.164;2023-03-23T01:03:04;7.74;85.05
68248;SHT30;55064;49.636;12.164;2023-03-23T01:05:35;7.67;85.42
68248;SHT30;55064;49.636;12.164;2023-03-23T01:08:03;7.65;85.60
68248;SHT30;55064;49.636;12.164;2023-03-23T01:10:29;7.54;85.90
68248;SHT30;55064;49.636;12.164;2023-03-23T01:12:58;7.59;85.78
68248;SHT30;55064;49.636;12.164;2023-03-23T01:15:23;7.65;85.37
68248;SHT30;55064;49.636;12.164;2023-03-23T01:17:49;7.69;86.18
68248;SHT30;55064;49.636;12.164;2023-03-23T01:20:16;7.69;85.81
68248;SHT30;55064;49.636;12.164;2023-03-23T01:22:44;7.70;85.86
68248;SHT30;55064;49.636;12.164;2023-03-23T01:25:13;7.72;85.44
68248;SHT30;55064;49.636;12.164;2023-03-23T01:27:39;7.72;85.72
68248;SHT30;55064;49.636;12.164;2023-03-23T01:30:06;7.73;86.01
68248;SHT30;55064;49.636;12.164;2023-03-23T01:32:34;7.70;86.65
68248;SHT30;55064;49.636;12.164;2023-03-23T01:35:00;7.74;86.39
68248;SHT30;55064;49.636;12.164;2023-03-23T01:37:25;7.76;86.38
68248;SHT30;55064;49.636;12.164;2023-03-23T01:39:56;7.76;86.71
68248;SHT30;55064;49.636;12.164;2023-03-23T01:42:29;7.79;86.16
68248;SHT30;55064;49.636;12.164;2023-03-23T01:47:22;7.87;86.56
68248;SHT30;55064;49.636;12.164;2023-03-23T01:49:51;7.90;86.83
68248;SHT30;55064;49.636;12.164;2023-03-23T01:52:23;7.91;86.39
68248;SHT30;55064;49.636;12.164;2023-03-23T01:54:52;7.93;86.36
68248;SHT30;55064;49.636;12.164;2023-03-23T01:57:23;7.90;86.53
68248;SHT30;55064;49.636;12.164;2023-03-23T01:59:53;7.91;86.38
68248;SHT30;55064;49.636;12.164;2023-03-23T02:02:21;7.89;85.91
68248;SHT30;55064;49.636;12.164;2023-03-23T02:04:51;7.86;85.62
68248;SHT30;55064;49.636;12.164;2023-03-23T02:07:20;7.90;85.57
68248;SHT30;55064;49.636;12.164;2023-03-23T02:09:46;7.82;86.35
68248;SHT30;55064;49.636;12.164;2023-03-23T02:12:14;7.82;86.75
68248;SHT30;55064;49.636;12.164;2023-03-23T02:14:40;7.86;86.74
68248;SHT30;55064;49.636;12.164;2023-03-23T02:34:37;8.01;86.47
68248;SHT30;55064;49.636;12.164;2023-03-23T02:37:02;8.10;86.07
68248;SHT30;55064;49.636;12.164;2023-03-23T02:39:32;8.12;85.44
68248;SHT30;55064;49.636;12.164;2023-03-23T02:42:07;8.21;85.32
68248;SHT30;55064;49.636;12.164;2023-03-23T02:44:36;8.24;85.19
68248;SHT30;55064;49.636;12.164;2023-03-23T02:47:05;8.25;84.72
68248;SHT30;55064;49.636;12.164;2023-03-23T02:49:32;8.25;84.44
68248;SHT30;55064;49.636;12.164;2023-03-23T02:52:04;8.28;84.22
68248;SHT30;55064;49.636;12.164;2023-03-23T02:54:31;8.31;84.13
68248;SHT30;55064;49.636;12.164;2023-03-23T02:56:59;8.38;84.41
68248;SHT30;55064;49.636;12.164;2023-03-23T02:59:26;8.39;84.13
68248;SHT30;55064;49.636;12.164;2023-03-23T03:01:55;8.41;84.05
68248;SHT30;55064;49.636;12.164;2023-03-23T03:04:28;8.42;83.92
68248;SHT30;55064;49.636;12.164;2023-03-23T03:12:08;8.63;83.32
68248;SHT30;55064;49.636;12.164;2023-03-23T03:14:48;8.79;81.86
68248;SHT30;55064;49.636;12.164;2023-03-23T03:17:20;8.84;81.11
68248;SHT30;55064;49.636;12.164;2023-03-23T03:19:49;8.91;80.94
68248;SHT30;55064;49.636;12.164;2023-03-23T03:22:19;9.08;80.27
68248;SHT30;55064;49.636;12.164;2023-03-23T03:24:47;9.13;79.83
68248;SHT30;55064;49.636;12.164;2023-03-23T03:27:17;9.17;79.76
68248;SHT30;55064;49.636;12.164;2023-03-23T03:29:51;9.31;79.28
68248;SHT30;55064;49.636;12.164;2023-03-23T03:32:22;9.43;78.39
68248;SHT30;55064;49.636;12.164;2023-03-23T03:34:51;9.53;77.85
68248;SHT30;55064;49.636;12.164;2023-03-23T03:37:18;9.58;77.78
68248;SHT30;55064;49.636;12.164;2023-03-23T03:39:44;9.56;77.77
68248;SHT30;55064;49.636;12.164;2023-03-23T03:42:09;9.65;77.44
68248;SHT30;55064;49.636;12.164;2023-03-23T03:44:34;9.69;76.77
68248;SHT30;55064;49.636;12.164;2023-03-23T03:47:00;9.72;77.01
68248;SHT30;55064;49.636;12.164;2023-03-23T03:49:26;9.75;76.95
68248;SHT30;55064;49.636;12.164;2023-03-23T03:51:54;9.75;76.90
68248;SHT30;55064;49.636;12.164;2023-03-23T03:54:19;9.72;77.23
68248;SHT30;55064;49.636;12.164;2023-03-23T03:56:44;9.73;77.04
68248;SHT30;55064;49.636;12.164;2023-03-23T03:59:11;9.72;77.05
68248;SHT30;55064;49.636;12.164;2023-03-23T04:01:40;9.63;77.52
68248;SHT30;55064;49.636;12.164;2023-03-23T04:04:06;9.69;77.39
68248;SHT30;55064;49.636;12.164;2023-03-23T04:06:33;9.69;77.21
68248;SHT30;55064;49.636;12.164;2023-03-23T04:09:03;9.70;77.20
68248;SHT30;55064;49.636;12.164;2023-03-23T04:11:33;9.62;77.42
68248;SHT30;55064;49.636;12.164;2023-03-23T04:13:58;9.63;77.45
68248;SHT30;55064;49.636;12.164;2023-03-23T04:16:23;9.59;77.44
68248;SHT30;55064;49.636;12.164;2023-03-23T04:18:51;9.60;77.45
68248;SHT30;55064;49.636;12.164;2023-03-23T04:21:19;9.68;77.25
68248;SHT30;55064;49.636;12.164;2023-03-23T04:23:45;9.93;75.60
68248;SHT30;55064;49.636;12.164;2023-03-23T04:26:11;10.10;74.52
68248;SHT30;55064;49.636;12.164;2023-03-23T04:28:38;10.32;73.39
68248;SHT30;55064;49.636;12.164;2023-03-23T04:31:03;10.38;73.25
68248;SHT30;55064;49.636;12.164;2023-03-23T04:33:29;10.52;72.72
68248;SHT30;55064;49.636;12.164;2023-03-23T04:35:59;10.58;72.41
68248;SHT30;55064;49.636;12.164;2023-03-23T04:38:28;10.61;72.48
68248;SHT30;55064;49.636;12.164;2023-03-23T04:40:57;10.69;72.18
68248;SHT30;55064;49.636;12.164;2023-03-23T04:43:26;10.62;72.39
68248;SHT30;55064;49.636;12.164;2023-03-23T04:45:53;10.66;72.20
68248;SHT30;55064;49.636;12.164;2023-03-23T04:48:27;10.77;72.00
68248;SHT30;55064;49.636;12.164;2023-03-23T04:50:54;10.80;71.81
68248;SHT30;55064;49.636;12.164;2023-03-23T04:53:19;10.80;71.84
68248;SHT30;55064;49.636;12.164;2023-03-23T04:55:46;10.84;71.62
68248;SHT30;55064;49.636;12.164;2023-03-23T04:58:13;10.89;71.46
68248;SHT30;55064;49.636;12.164;2023-03-23T05:00:43;10.93;71.27
68248;SHT30;55064;49.636;12.164;2023-03-23T05:03:15;11.01;70.80
68248;SHT30;55064;49.636;12.164;2023-03-23T05:05:46;10.99;71.22
68248;SHT30;55064;49.636;12.164;2023-03-23T05:08:17;10.97;71.22
68248;SHT30;55064;49.636;12.164;2023-03-23T05:10:50;11.07;70.64
68248;SHT30;55064;49.636;12.164;2023-03-23T05:13:15;11.16;70.23
68248;SHT30;55064;49.636;12.164;2023-03-23T05:15:40;11.20;70.18
68248;SHT30;55064;49.636;12.164;2023-03-23T05:18:10;11.17;70.41
68248;SHT30;55064;49.636;12.164;2023-03-23T05:20:36;11.18;70.31
68248;SHT30;55064;49.636;12.164;2023-03-23T05:23:02;11.28;69.67
68248;SHT30;55064;49.636;12.164;2023-03-23T05:25:29;11.23;70.09
68248;SHT30;55064;49.636;12.164;2023-03-23T05:27:54;11.24;70.19
68248;SHT30;55064;49.636;12.164;2023-03-23T05:30:20;11.31;70.09
68248;SHT30;55064;49.636;12.164;2023-03-23T05:32:46;11.28;69.99
68248;SHT30;55064;49.636;12.164;2023-03-23T05:35:17;11.34;69.90
68248;SHT30;55064;49.636;12.164;2023-03-23T05:37:43;11.36;69.72
68248;SHT30;55064;49.636;12.164;2023-03-23T05:40:11;11.35;69.87
68248;SHT30;55064;49.636;12.164;2023-03-23T05:42:38;11.38;69.73
68248;SHT30;55064;49.636;12.164;2023-03-23T05:45:09;11.31;70.02
68248;SHT30;55064;49.636;12.164;2023-03-23T05:47:38;11.38;69.70
68248;SHT30;55064;49.636;12.164;2023-03-23T05:50:04;11.41;69.68
68248;SHT30;55064;49.636;12.164;2023-03-23T05:52:33;11.44;69.54
68248;SHT30;55064;49.636;12.164;2023-03-23T05:55:02;11.41;69.79
68248;SHT30;55064;49.636;12.164;2023-03-23T05:57:30;11.45;69.54
68248;SHT30;55064;49.636;12.164;2023-03-23T05:59:56;11.44;69.56
68248;SHT30;55064;49.636;12.164;2023-03-23T06:02:25;11.51;69.33
68248;SHT30;55064;49.636;12.164;2023-03-23T06:04:54;11.58;69.11
68248;SHT30;55064;49.636;12.164;2023-03-23T06:07:23;11.54;69.22
68248;SHT30;55064;49.636;12.164;2023-03-23T06:09:49;11.48;69.59
68248;SHT30;55064;49.636;12.164;2023-03-23T06:12:16;11.48;69.82
68248;SHT30;55064;49.636;12.164;2023-03-23T06:14:47;11.50;69.46
68248;SHT30;55064;49.636;12.164;2023-03-23T06:17:17;11.63;68.78
68248;SHT30;55064;49.636;12.164;2023-03-23T06:19:43;11.63;69.02
68248;SHT30;55064;49.636;12.164;2023-03-23T06:22:10;11.65;68.76
68248;SHT30;55064;49.636;12.164;2023-03-23T06:24:36;11.65;68.95
68248;SHT30;55064;49.636;12.164;2023-03-23T06:27:01;11.66;68.66
68248;SHT30;55064;49.636;12.164;2023-03-23T06:29:29;11.65;68.73
68248;SHT30;55064;49.636;12.164;2023-03-23T06:31:58;11.69;68.49
68248;SHT30;55064;49.636;12.164;2023-03-23T06:34:25;11.65;68.90
68248;SHT30;55064;49.636;12.164;2023-03-23T06:36:51;11.66;68.97
68248;SHT30;55064;49.636;12.164;2023-03-23T06:39:16;11.66;69.00
68248;SHT30;55064;49.636;12.164;2023-03-23T06:41:42;11.66;69.00
68248;SHT30;55064;49.636;12.164;2023-03-23T06:44:07;11.68;68.88
68248;SHT30;55064;49.636;12.164;2023-03-23T06:46:35;11.72;68.92
68248;SHT30;55064;49.636;12.164;2023-03-23T06:49:01;11.75;68.63
68248;SHT30;55064;49.636;12.164;2023-03-23T06:51:26;11.69;68.74
68248;SHT30;55064;49.636;12.164;2023-03-23T06:53:52;11.68;68.91
68248;SHT30;55064;49.636;12.164;2023-03-23T06:56:17;11.68;68.88
68248;SHT30;55064;49.636;12.164;2023-03-23T06:58:43;11.58;69.18
68248;SHT30;55064;49.636;12.164;2023-03-23T07:01:10;11.57;69.42
68248;SHT30;55064;49.636;12.164;2023-03-23T07:03:38;11.58;69.37
68248;SHT30;55064;49.636;12.164;2023-03-23T07:06:10;11.61;69.40
68248;SHT30;55064;49.636;12.164;2023-03-23T07:08:39;11.65;69.20
68248;SHT30;55064;49.636;12.164;2023-03-23T07:11:05;11.72;69.37
68248;SHT30;55064;49.636;12.164;2023-03-23T07:13:31;11.66;69.08
68248;SHT30;55064;49.636;12.164;2023-03-23T07:15:57;11.63;69.29
68248;SHT30;55064;49.636;12.164;2023-03-23T07:18:25;11.59;69.53
68248;SHT30;55064;49.636;12.164;2023-03-23T07:20:51;11.66;69.76
68248;SHT30;55064;49.636;12.164;2023-03-23T07:23:19;11.72;69.96
68248;SHT30;55064;49.636;12.164;2023-03-23T07:25:44;11.71;70.35
68248;SHT30;55064;49.636;12.164;2023-03-23T07:28:12;11.76;70.75
68248;SHT30;55064;49.636;12.164;2023-03-23T07:30:37;11.76;70.57
68248;SHT30;55064;49.636;12.164;2023-03-23T07:33:07;11.71;70.60
68248;SHT30;55064;49.636;12.164;2023-03-23T07:35:33;11.75;70.60
68248;SHT30;55064;49.636;12.164;2023-03-23T07:38:06;11.75;70.63
68248;SHT30;55064;49.636;12.164;2023-03-23T07:40:34;11.90;70.10
68248;SHT30;55064;49.636;12.164;2023-03-23T07:43:02;11.96;69.89
68248;SHT30;55064;49.636;12.164;2023-03-23T07:45:28;12.04;69.07
68248;SHT30;55064;49.636;12.164;2023-03-23T07:47:55;12.13;68.72
68248;SHT30;55064;49.636;12.164;2023-03-23T07:50:23;12.21;68.83
68248;SHT30;55064;49.636;12.164;2023-03-23T07:52:54;12.40;68.31
68248;SHT30;55064;49.636;12.164;2023-03-23T07:55:22;12.41;68.07
68248;SHT30;55064;49.636;12.164;2023-03-23T07:57:49;12.46;68.15
68248;SHT30;55064;49.636;12.164;2023-03-23T08:00:17;12.52;68.21
68248;SHT30;55064;49.636;12.164;2023-03-23T08:02:50;12.49;68.05
68248;SHT30;55064;49.636;12.164;2023-03-23T08:05:16;12.56;67.75
68248;SHT30;55064;49.636;12.164;2023-03-23T08:07:44;12.62;68.08
68248;SHT30;55064;49.636;12.164;2023-03-23T08:10:12;12.68;67.76
68248;SHT30;55064;49.636;12.164;2023-03-23T08:12:41;12.71;67.33
68248;SHT30;55064;49.636;12.164;2023-03-23T08:15:08;12.78;67.46
68248;SHT30;55064;49.636;12.164;2023-03-23T08:17:35;12.83;66.89
68248;SHT30;55064;49.636;12.164;2023-03-23T08:20:02;12.89;67.01
68248;SHT30;55064;49.636;12.164;2023-03-23T08:22:39;12.97;67.48
68248;SHT30;55064;49.636;12.164;2023-03-23T08:25:07;13.02;67.35
68248;SHT30;55064;49.636;12.164;2023-03-23T08:27:33;13.14;68.19
68248;SHT30;55064;49.636;12.164;2023-03-23T08:30:01;13.06;68.02
68248;SHT30;55064;49.636;12.164;2023-03-23T08:32:32;13.04;67.53
68248;SHT30;55064;49.636;12.164;2023-03-23T08:34:58;13.16;69.66
68248;SHT30;55064;49.636;12.164;2023-03-23T08:37:23;13.21;68.32
68248;SHT30;55064;49.636;12.164;2023-03-23T08:39:53;13.21;68.39
68248;SHT30;55064;49.636;12.164;2023-03-23T08:42:18;13.27;68.31
68248;SHT30;55064;49.636;12.164;2023-03-23T08:44:44;13.21;68.12
68248;SHT30;55064;49.636;12.164;2023-03-23T08:47:14;13.26;67.91
68248;SHT30;55064;49.636;12.164;2023-03-23T08:49:42;13.21;67.48
68248;SHT30;55064;49.636;12.164;2023-03-23T08:52:08;13.23;67.68
68248;SHT30;55064;49.636;12.164;2023-03-23T08:54:35;13.20;67.40
68248;SHT30;55064;49.636;12.164;2023-03-23T08:57:01;13.23;67.40
68248;SHT30;55064;49.636;12.164;2023-03-23T08:59:28;13.21;67.81
68248;SHT30;55064;49.636;12.164;2023-03-23T09:01:53;13.20;67.25
68248;SHT30;55064;49.636;12.164;2023-03-23T09:04:21;13.23;67.21
68248;SHT30;55064;49.636;12.164;2023-03-23T09:06:47;13.10;67.54
68248;SHT30;55064;49.636;12.164;2023-03-23T09:09:13;13.03;68.00
68248;SHT30;55064;49.636;12.164;2023-03-23T09:11:40;13.06;68.13
68248;SHT30;55064;49.636;12.164;2023-03-23T09:14:07;13.13;67.76
68248;SHT30;55064;49.636;12.164;2023-03-23T09:16:33;13.21;68.37
68248;SHT30;55064;49.636;12.164;2023-03-23T09:19:00;13.20;68.09
68248;SHT30;55064;49.636;12.164;2023-03-23T09:21:29;13.24;68.44
68248;SHT30;55064;49.636;12.164;2023-03-23T09:23:55;13.27;68.46
68248;SHT30;55064;49.636;12.164;2023-03-23T09:26:24;13.34;67.50
68248;SHT30;55064;49.636;12.164;2023-03-23T09:28:50;13.43;67.66
68248;SHT30;55064;49.636;12.164;2023-03-23T09:31:17;13.51;66.95
68248;SHT30;55064;49.636;12.164;2023-03-23T09:33:46;13.53;67.30
68248;SHT30;55064;49.636;12.164;2023-03-23T09:36:12;13.59;67.13
68248;SHT30;55064;49.636;12.164;2023-03-23T09:38:40;13.57;67.32
68248;SHT30;55064;49.636;12.164;2023-03-23T09:47:11;13.65;66.53
68248;SHT30;55064;49.636;12.164;2023-03-23T09:49:45;13.68;66.83
68248;SHT30;55064;49.636;12.164;2023-03-23T09:52:17;13.66;66.60
68248;SHT30;55064;49.636;12.164;2023-03-23T09:54:48;13.76;66.90
68248;SHT30;55064;49.636;12.164;2023-03-23T09:57:40;13.90;66.40
68248;SHT30;55064;49.636;12.164;2023-03-23T10:00:12;13.78;66.99
68248;SHT30;55064;49.636;12.164;2023-03-23T10:02:48;13.86;67.59
68248;SHT30;55064;49.636;12.164;2023-03-23T10:05:39;13.99;67.90
68248;SHT30;55064;49.636;12.164;2023-03-23T10:08:11;14.03;69.52
68248;SHT30;55064;49.636;12.164;2023-03-23T10:17:00;14.23;69.25
68248;SHT30;55064;49.636;12.164;2023-03-23T10:19:33;14.12;69.34
68248;SHT30;55064;49.636;12.164;2023-03-23T10:22:05;14.24;69.82
68248;SHT30;55064;49.636;12.164;2023-03-23T10:24:36;14.37;68.99
68248;SHT30;55064;49.636;12.164;2023-03-23T10:27:17;14.29;68.68
68248;SHT30;55064;49.636;12.164;2023-03-23T10:29:52;14.23;68.48
68248;SHT30;55064;49.636;12.164;2023-03-23T10:32:39;14.36;68.63
68248;SHT30;55064;49.636;12.164;2023-03-23T10:35:11;14.67;67.85
68248;SHT30;55064;49.636;12.164;2023-03-23T10:37:43;14.69;67.69
68248;SHT30;55064;49.636;12.164;2023-03-23T10:40:17;14.72;67.60
68248;SHT30;55064;49.636;12.164;2023-03-23T10:42:43;14.74;67.57
68248;SHT30;55064;49.636;12.164;2023-03-23T10:45:30;14.96;68.04
68248;SHT30;55064;49.636;12.164;2023-03-23T10:48:37;14.84;67.21
68248;SHT30;55064;49.636;12.164;2023-03-23T10:51:06;14.76;67.76
68248;SHT30;55064;49.636;12.164;2023-03-23T10:53:41;14.69;67.89
68248;SHT30;55064;49.636;12.164;2023-03-23T10:56:27;14.81;67.72
68248;SHT30;55064;49.636;12.164;2023-03-23T10:58:54;14.91;67.67
68248;SHT30;55064;49.636;12.164;2023-03-23T11:01:30;15.03;67.01
68248;SHT30;55064;49.636;12.164;2023-03-23T11:03:55;15.24;66.68
68248;SHT30;55064;49.636;12.164;2023-03-23T11:06:30;15.33;67.19
68248;SHT30;55064;49.636;12.164;2023-03-23T11:09:09;15.51;66.64
68248;SHT30;55064;49.636;12.164;2023-03-23T11:11:47;15.62;66.08
68248;SHT30;55064;49.636;12.164;2023-03-23T11:16:52;15.58;63.55
68248;SHT30;55064;49.636;12.164;2023-03-23T11:19:27;15.77;64.44
68248;SHT30;55064;49.636;12.164;2023-03-23T11:22:07;15.91;63.19
68248;SHT30;55064;49.636;12.164;2023-03-23T11:24:40;16.01;63.33
68248;SHT30;55064;49.636;12.164;2023-03-23T11:27:08;15.99;62.87
68248;SHT30;55064;49.636;12.164;2023-03-23T11:30:00;15.98;62.06
68248;SHT30;55064;49.636;12.164;2023-03-23T11:32:30;15.91;62.73
68248;SHT30;55064;49.636;12.164;2023-03-23T11:35:00;15.84;62.18
68248;SHT30;55064;49.636;12.164;2023-03-23T11:37:42;15.75;63.45
68248;SHT30;55064;49.636;12.164;2023-03-23T11:45:25;15.57;63.19
68248;SHT30;55064;49.636;12.164;2023-03-23T11:50:32;15.39;63.33
68248;SHT30;55064;49.636;12.164;2023-03-23T11:53:24;15.43;63.83
68248;SHT30;55064;49.636;12.164;2023-03-23T11:56:01;15.51;64.43
68248;SHT30;55064;49.636;12.164;2023-03-23T11:58:29;15.44;63.71
68248;SHT30;55064;49.636;12.164;2023-03-23T12:01:19;15.33;63.58
68248;SHT30;55064;49.636;12.164;2023-03-23T12:12:04;15.53;64.28
68248;SHT30;55064;49.636;12.164;2023-03-23T12:22:55;15.51;64.14
68248;SHT30;55064;49.636;12.164;2023-03-23T12:28:34;15.23;65.69
68248;SHT30;55064;49.636;12.164;2023-03-23T12:36:55;14.81;69.71
68248;SHT30;55064;49.636;12.164;2023-03-23T12:40:37;14.69;71.28
68248;SHT30;55064;49.636;12.164;2023-03-23T12:48:19;14.49;71.73
68248;SHT30;55064;49.636;12.164;2023-03-23T12:53:30;14.34;71.75
68248;SHT30;55064;49.636;12.164;2023-03-23T12:56:17;14.40;71.12
68248;SHT30;55064;49.636;12.164;2023-03-23T12:58:47;14.49;70.90
68248;SHT30;55064;49.636;12.164;2023-03-23T13:01:21;14.60;70.73
68248;SHT30;55064;49.636;12.164;2023-03-23T13:03:58;14.72;70.68
68248;SHT30;55064;49.636;12.164;2023-03-23T13:06:37;14.85;70.26
68248;SHT30;55064;49.636;12.164;2023-03-23T13:11:47;14.85;70.03
68248;SHT30;55064;49.636;12.164;2023-03-23T13:19:59;14.76;71.90
68248;SHT30;55064;49.636;12.164;2023-03-23T13:24:59;14.76;72.06
68248;SHT30;55064;49.636;12.164;2023-03-23T13:27:27;14.82;71.19
68248;SHT30;55064;49.636;12.164;2023-03-23T13:29:53;14.78;70.54
68248;SHT30;55064;49.636;12.164;2023-03-23T13:32:23;14.89;70.33
68248;SHT30;55064;49.636;12.164;2023-03-23T13:34:55;15.02;70.16
68248;SHT30;55064;49.636;12.164;2023-03-23T13:37:25;15.02;70.59
68248;SHT30;55064;49.636;12.164;2023-03-23T13:39:55;15.06;70.55
68248;SHT30;55064;49.636;12.164;2023-03-23T13:42:30;14.99;70.02
68248;SHT30;55064;49.636;12.164;2023-03-23T13:45:19;14.96;69.96
68248;SHT30;55064;49.636;12.164;2023-03-23T13:47:46;14.91;69.48
68248;SHT30;55064;49.636;12.164;2023-03-23T13:50:27;14.89;69.94
68248;SHT30;55064;49.636;12.164;2023-03-23T13:53:00;14.88;69.52
68248;SHT30;55064;49.636;12.164;2023-03-23T14:10:38;15.02;68.95
68248;SHT30;55064;49.636;12.164;2023-03-23T14:13:20;14.98;68.78
68248;SHT30;55064;49.636;12.164;2023-03-23T14:16:13;14.95;69.03
68248;SHT30;55064;49.636;12.164;2023-03-23T14:18:42;14.92;69.10
68248;SHT30;55064;49.636;12.164;2023-03-23T14:21:25;14.85;69.13
68248;SHT30;55064;49.636;12.164;2023-03-23T14:23:52;14.92;68.97
68248;SHT30;55064;49.636;12.164;2023-03-23T14:26:22;14.81;69.21
68248;SHT30;55064;49.636;12.164;2023-03-23T14:28:52;14.85;68.92
68248;SHT30;55064;49.636;12.164;2023-03-23T14:33:46;15.06;67.73
68248;SHT30;55064;49.636;12.164;2023-03-23T14:36:14;15.19;68.11
68248;SHT30;55064;49.636;12.164;2023-03-23T14:38:40;15.34;67.94
68248;SHT30;55064;49.636;12.164;2023-03-23T14:41:06;15.34;66.80
68248;SHT30;55064;49.636;12.164;2023-03-23T14:43:34;15.36;66.92
68248;SHT30;55064;49.636;12.164;2023-03-23T14:46:02;15.37;66.41
68248;SHT30;55064;49.636;12.164;2023-03-23T14:48:30;15.33;66.34
68248;SHT30;55064;49.636;12.164;2023-03-23T14:51:01;15.33;66.65
68248;SHT30;55064;49.636;12.164;2023-03-23T14:53:36;15.31;66.63
68248;SHT30;55064;49.636;12.164;2023-03-23T14:56:19;15.33;66.96
68248;SHT30;55064;49.636;12.164;2023-03-23T14:58:49;15.36;66.78
68248;SHT30;55064;49.636;12.164;2023-03-23T15:01:28;15.43;66.64
68248;SHT30;55064;49.636;12.164;2023-03-23T15:04:08;15.33;66.18
68248;SHT30;55064;49.636;12.164;2023-03-23T15:06:44;15.33;66.60
68248;SHT30;55064;49.636;12.164;2023-03-23T15:09:17;15.34;66.73
68248;SHT30;55064;49.636;12.164;2023-03-23T15:11:58;15.33;66.99
68248;SHT30;55064;49.636;12.164;2023-03-23T15:14:32;15.37;67.02
68248;SHT30;55064;49.636;12.164;2023-03-23T15:17:00;15.30;66.52
68248;SHT30;55064;49.636;12.164;2023-03-23T15:19:40;15.29;66.66
68248;SHT30;55064;49.636;12.164;2023-03-23T15:22:25;15.27;66.74
68248;SHT30;55064;49.636;12.164;2023-03-23T15:24:53;15.22;67.32
68248;SHT30;55064;49.636;12.164;2023-03-23T15:29:57;15.09;67.59
68248;SHT30;55064;49.636;12.164;2023-03-23T15:32:30;15.00;67.93
68248;SHT30;55064;49.636;12.164;2023-03-23T15:34:56;15.03;67.40
68248;SHT30;55064;49.636;12.164;2023-03-23T15:37:30;15.06;67.58
68248;SHT30;55064;49.636;12.164;2023-03-23T15:39:57;15.06;67.95
68248;SHT30;55064;49.636;12.164;2023-03-23T15:42:28;15.07;68.07
68248;SHT30;55064;49.636;12.164;2023-03-23T15:47:37;15.04;68.23
68248;SHT30;55064;49.636;12.164;2023-03-23T15:52:36;15.04;68.14
68248;SHT30;55064;49.636;12.164;2023-03-23T15:57:43;15.04;68.58
68248;SHT30;55064;49.636;12.164;2023-03-23T16:00:11;15.00;69.08
68248;SHT30;55064;49.636;12.164;2023-03-23T16:02:37;14.96;69.72
68248;SHT30;55064;49.636;12.164;2023-03-23T16:05:10;14.93;69.73
68248;SHT30;55064;49.636;12.164;2023-03-23T16:07:37;14.93;69.18
68248;SHT30;55064;49.636;12.164;2023-03-23T16:10:04;14.96;68.73
68248;SHT30;55064;49.636;12.164;2023-03-23T16:12:31;14.96;69.34
68248;SHT30;55064;49.636;12.164;2023-03-23T16:14:57;14.91;69.83
68248;SHT30;55064;49.636;12.164;2023-03-23T16:17:24;14.95;69.17
68248;SHT30;55064;49.636;12.164;2023-03-23T16:19:50;14.86;69.79
68248;SHT30;55064;49.636;12.164;2023-03-23T16:22:17;14.84;69.81
68248;SHT30;55064;49.636;12.164;2023-03-23T16:24:42;14.84;69.52
68248;SHT30;55064;49.636;12.164;2023-03-23T16:27:12;14.84;69.33
68248;SHT30;55064;49.636;12.164;2023-03-23T16:29:38;14.81;69.82
68248;SHT30;55064;49.636;12.164;2023-03-23T16:32:05;14.74;69.99
68248;SHT30;55064;49.636;12.164;2023-03-23T16:34:31;14.74;69.83
68248;SHT30;55064;49.636;12.164;2023-03-23T16:37:02;14.75;70.01
68248;SHT30;55064;49.636;12.164;2023-03-23T16:39:29;14.71;70.10
68248;SHT30;55064;49.636;12.164;2023-03-23T16:41:54;14.68;69.80
68248;SHT30;55064;49.636;12.164;2023-03-23T16:44:21;14.67;70.22
68248;SHT30;55064;49.636;12.164;2023-03-23T16:46:48;14.68;69.71
68248;SHT30;55064;49.636;12.164;2023-03-23T16:49:13;14.67;69.96
68248;SHT30;55064;49.636;12.164;2023-03-23T16:51:42;14.63;69.85
68248;SHT30;55064;49.636;12.164;2023-03-23T16:54:08;14.60;70.06
68248;SHT30;55064;49.636;12.164;2023-03-23T16:56:34;14.52;70.34
68248;SHT30;55064;49.636;12.164;2023-03-23T16:59:00;14.51;70.57
68248;SHT30;55064;49.636;12.164;2023-03-23T17:01:25;14.49;70.56
68248;SHT30;55064;49.636;12.164;2023-03-23T17:03:50;14.40;70.85
68248;SHT30;55064;49.636;12.164;2023-03-23T17:06:25;14.41;70.86
68248;SHT30;55064;49.636;12.164;2023-03-23T17:08:55;14.40;70.77
68248;SHT30;55064;49.636;12.164;2023-03-23T17:11:21;14.36;70.74
68248;SHT30;55064;49.636;12.164;2023-03-23T17:13:49;14.37;70.37
68248;SHT30;55064;49.636;12.164;2023-03-23T17:16:15;14.34;70.76
68248;SHT30;55064;49.636;12.164;2023-03-23T17:18:41;14.31;70.89
68248;SHT30;55064;49.636;12.164;2023-03-23T17:21:07;14.27;71.29
68248;SHT30;55064;49.636;12.164;2023-03-23T17:23:33;14.21;71.18
68248;SHT30;55064;49.636;12.164;2023-03-23T17:25:59;14.17;71.50
68248;SHT30;55064;49.636;12.164;2023-03-23T17:28:25;14.21;71.53
68248;SHT30;55064;49.636;12.164;2023-03-23T17:30:51;14.19;71.55
68248;SHT30;55064;49.636;12.164;2023-03-23T17:33:21;14.23;70.86
68248;SHT30;55064;49.636;12.164;2023-03-23T17:35:47;14.23;70.81